Time;durP1;ratioP1;P1;durP2;ratioP2;P2;SDS_P1;SDS_P2;PMS_P1;PMS_P2;Temp;Humidity;BMP_temperature;BMP_pressure;BME280_temperature;BME280_humidity;BME280_pressure;Samples;Min_cycle;Max_cycle;Signal;HPM_P1;HPM_P2
2023/09/03 00:02:20;;;;;;;27.23;15.52;;;19.90;99.90;;;;;;5015818;28;46236;-51
2023/09/03 00:04:47;;;;;;;26.88;15.13;;;19.80;99.90;;;;;;5022276;28;45280;-52
2023/09/03 00:07:14;;;;;;;21.23;14.48;;;19.80;99.90;;;;;;5025075;28;45096;-52
2023/09/03 00:09:42;;;;;;;22.02;14.43;;;19.80;99.90;;;;;;5016631;28;45259;-52
2023/09/03 00:12:09;;;;;;;23.20;14.35;;;19.80;99.90;;;;;;5018174;28;46506;-52
2023/09/03 00:14:36;;;;;;;24.10;14.18;;;19.80;99.90;;;;;;5023184;28;44663;-52
2023/09/03 00:17:03;;;;;;;21.63;14.05;;;19.80;99.90;;;;;;5019614;28;45104;-52
2023/09/03 00:19:30;;;;;;;23.02;14.68;;;19.80;99.90;;;;;;5021112;28;45091;-51
2023/09/03 00:21:56;;;;;;;24.90;15.55;;;19.90;99.90;;;;;;5017644;28;45604;-52
2023/09/03 00:24:23;;;;;;;21.88;15.02;;;19.80;99.90;;;;;;5022219;28;45155;-52
2023/09/03 00:26:51;;;;;;;23.13;14.98;;;19.80;99.90;;;;;;5021220;28;44641;-52
2023/09/03 00:29:18;;;;;;;20.90;14.43;;;19.80;99.90;;;;;;5020988;28;45187;-52
2023/09/03 00:31:45;;;;;;;28.88;16.30;;;19.80;99.90;;;;;;5015441;28;46381;-52
2023/09/03 00:34:11;;;;;;;26.60;14.98;;;19.80;99.90;;;;;;5021118;28;45035;-51
2023/09/03 00:36:40;;;;;;;24.30;14.52;;;19.80;99.90;;;;;;5014512;28;44695;-52
2023/09/03 00:39:07;;;;;;;24.92;14.98;;;19.80;99.90;;;;;;5024437;28;45186;-51
2023/09/03 00:41:33;;;;;;;29.25;16.42;;;19.90;99.90;;;;;;5016345;28;48077;-52
2023/09/03 00:44:02;;;;;;;27.63;16.05;;;19.80;99.90;;;;;;5020798;28;45162;-52
2023/09/03 00:46:30;;;;;;;26.60;15.68;;;19.80;99.90;;;;;;5023011;28;45420;-52
2023/09/03 00:48:58;;;;;;;26.02;14.65;;;19.70;99.90;;;;;;5023123;28;45326;-52
2023/09/03 00:51:25;;;;;;;23.88;15.82;;;19.70;99.90;;;;;;5022016;28;47310;-52
2023/09/03 00:53:55;;;;;;;25.05;15.75;;;19.70;99.90;;;;;;5023604;28;45035;-52
2023/09/03 00:56:22;;;;;;;25.02;15.52;;;19.70;99.90;;;;;;5020889;28;45349;-52
2023/09/03 00:58:49;;;;;;;27.55;15.63;;;19.70;99.90;;;;;;5018126;28;45090;-52
2023/09/03 01:01:18;;;;;;;25.75;15.32;;;19.70;99.90;;;;;;5006058;28;45461;-52
2023/09/03 01:03:46;;;;;;;26.38;16.17;;;19.80;99.90;;;;;;5022777;28;45218;-51
2023/09/03 01:06:13;;;;;;;27.70;15.52;;;19.70;99.90;;;;;;5023354;28;45306;-51
2023/09/03 01:08:39;;;;;;;27.50;16.65;;;19.70;99.90;;;;;;5021156;28;45131;-52
2023/09/03 01:11:19;;;;;;;29.38;18.73;;;19.70;99.90;;;;;;5020650;28;45169;-52
2023/09/03 01:13:54;;;;;;;28.40;17.55;;;19.60;99.90;;;;;;5018572;28;45249;-52
2023/09/03 01:16:28;;;;;;;31.92;17.85;;;19.60;99.90;;;;;;5019942;28;44622;-52
2023/09/03 01:18:57;;;;;;;28.90;17.83;;;19.60;99.90;;;;;;5022230;28;45318;-52
2023/09/03 01:21:42;;;;;;;24.23;15.20;;;19.50;99.90;;;;;;5017195;28;47042;-52
2023/09/03 01:24:24;;;;;;;26.73;16.17;;;19.60;99.90;;;;;;5023279;28;45338;-52
2023/09/03 01:27:04;;;;;;;26.83;17.08;;;19.70;99.90;;;;;;5020944;28;44720;-52
2023/09/03 01:29:33;;;;;;;31.00;16.88;;;19.60;99.90;;;;;;5024006;28;45354;-52
2023/09/03 01:32:01;;;;;;;26.75;17.25;;;19.60;99.90;;;;;;5020737;28;47070;-52
2023/09/03 01:34:29;;;;;;;28.00;16.85;;;19.60;99.90;;;;;;5019811;28;45227;-52
2023/09/03 01:36:56;;;;;;;25.23;16.63;;;19.60;99.90;;;;;;5023220;28;45170;-51
2023/09/03 01:39:22;;;;;;;26.50;16.98;;;19.60;99.90;;;;;;5023747;28;44974;-52
2023/09/03 01:41:49;;;;;;;25.17;16.30;;;19.60;99.90;;;;;;5018899;28;46544;-52
2023/09/03 01:44:16;;;;;;;24.40;16.25;;;19.60;99.90;;;;;;5019781;28;45131;-52
2023/09/03 01:46:50;;;;;;;27.33;16.23;;;19.60;99.90;;;;;;5022406;28;45036;-52
2023/09/03 01:49:28;;;;;;;27.70;17.85;;;19.60;99.90;;;;;;5022588;28;45307;-52
2023/09/03 01:52:05;;;;;;;28.88;17.52;;;19.60;99.90;;;;;;5021010;28;45313;-52
2023/09/03 01:54:37;;;;;;;28.60;17.48;;;19.60;99.90;;;;;;5022232;28;45651;-52
2023/09/03 01:57:08;;;;;;;25.67;17.05;;;19.60;99.90;;;;;;5018871;28;45252;-51
2023/09/03 01:59:39;;;;;;;27.92;17.33;;;19.60;99.90;;;;;;5023650;28;45050;-52
2023/09/03 02:02:09;;;;;;;28.17;16.58;;;19.60;99.90;;;;;;5017212;28;45198;-52
2023/09/03 02:04:36;;;;;;;32.55;17.98;;;19.50;99.90;;;;;;5017595;28;45629;-51
2023/09/03 02:07:03;;;;;;;31.65;17.42;;;19.50;99.90;;;;;;5022426;28;45109;-51
2023/09/03 02:09:30;;;;;;;29.00;17.58;;;19.50;99.90;;;;;;5023068;28;45081;-51
2023/09/03 02:11:58;;;;;;;28.75;17.00;;;19.50;99.90;;;;;;5023248;28;46187;-52
2023/09/03 02:14:26;;;;;;;27.50;17.60;;;19.50;99.90;;;;;;5021328;28;45339;-51
2023/09/03 02:16:53;;;;;;;29.50;17.42;;;19.50;99.90;;;;;;5017904;28;45238;-52
2023/09/03 02:19:22;;;;;;;32.42;17.70;;;19.50;99.90;;;;;;5021211;28;45144;-52
2023/09/03 02:21:49;;;;;;;27.63;17.27;;;19.50;99.90;;;;;;5014242;28;45229;-52
2023/09/03 02:24:16;;;;;;;26.60;16.98;;;19.50;99.90;;;;;;5020556;28;45553;-51
2023/09/03 02:26:43;;;;;;;27.80;17.05;;;19.50;99.90;;;;;;5015733;28;45154;-52
2023/09/03 02:29:10;;;;;;;32.65;18.35;;;19.50;99.90;;;;;;5023375;28;45298;-51
2023/09/03 02:31:37;;;;;;;25.40;16.45;;;19.50;99.90;;;;;;5020980;28;46343;-51
2023/09/03 02:34:06;;;;;;;27.55;17.27;;;19.50;99.90;;;;;;5018611;28;45170;-51
2023/09/03 02:36:35;;;;;;;27.75;16.17;;;19.50;99.90;;;;;;5022385;28;45181;-51
2023/09/03 02:39:02;;;;;;;26.92;16.70;;;19.50;99.90;;;;;;5023284;28;45190;-51
2023/09/03 02:41:30;;;;;;;24.73;15.10;;;19.50;99.90;;;;;;5019776;28;45241;-51
2023/09/03 02:43:58;;;;;;;27.50;17.30;;;19.60;99.90;;;;;;5020856;28;45127;-51
2023/09/03 02:46:25;;;;;;;26.77;16.50;;;19.60;99.90;;;;;;5022093;28;45171;-51
2023/09/03 02:48:52;;;;;;;32.70;18.13;;;19.50;99.90;;;;;;5018826;28;45152;-52
2023/09/03 02:51:19;;;;;;;25.30;16.55;;;19.50;99.90;;;;;;5020781;28;46347;-52
2023/09/03 02:53:47;;;;;;;29.75;17.52;;;19.50;99.90;;;;;;5022316;28;45300;-52
2023/09/03 02:56:15;;;;;;;26.08;17.00;;;19.50;99.90;;;;;;5020444;28;45180;-52
2023/09/03 02:58:42;;;;;;;27.52;17.10;;;19.50;99.90;;;;;;5022089;28;45274;-52
2023/09/03 03:01:09;;;;;;;33.10;18.52;;;19.50;99.90;;;;;;5017741;28;47010;-52
2023/09/03 03:03:36;;;;;;;35.83;17.67;;;19.50;99.90;;;;;;5019975;28;45040;-52
2023/09/03 03:06:03;;;;;;;28.17;17.63;;;19.50;99.90;;;;;;5022679;28;45293;-52
2023/09/03 03:08:30;;;;;;;26.88;16.58;;;19.50;99.90;;;;;;5019101;28;45280;-52
2023/09/03 03:11:07;;;;;;;21.35;13.95;;;19.50;99.90;;;;;;5014913;28;45049;-52
2023/09/03 03:13:34;;;;;;;23.65;15.63;;;19.50;99.90;;;;;;5021886;28;45275;-52
2023/09/03 03:16:06;;;;;;;25.88;16.85;;;19.30;99.90;;;;;;5017072;28;45111;-52
2023/09/03 03:18:33;;;;;;;23.25;14.95;;;19.20;99.90;;;;;;5022355;28;45382;-52
2023/09/03 03:21:07;;;;;;;26.65;15.52;;;19.20;99.90;;;;;;5022425;28;47445;-52
2023/09/03 03:23:35;;;;;;;23.02;14.07;;;19.10;99.90;;;;;;5022388;28;45148;-52
2023/09/03 03:26:02;;;;;;;24.33;14.65;;;19.10;99.90;;;;;;5020501;28;45115;-52
2023/09/03 03:28:33;;;;;;;24.33;14.48;;;19.20;99.90;;;;;;5020612;28;45237;-52
2023/09/03 03:31:09;;;;;;;24.15;14.80;;;19.30;99.90;;;;;;5019189;28;45216;-52
2023/09/03 03:33:35;;;;;;;23.45;14.35;;;19.30;99.90;;;;;;5019860;28;45199;-52
2023/09/03 03:36:02;;;;;;;20.80;13.98;;;19.40;99.90;;;;;;5013600;28;45223;-52
2023/09/03 03:38:29;;;;;;;20.08;13.05;;;19.40;99.90;;;;;;5012301;28;45158;-52
2023/09/03 03:41:07;;;;;;;20.83;13.55;;;19.30;99.90;;;;;;5022017;28;45433;-51
2023/09/03 03:43:35;;;;;;;22.30;13.48;;;19.30;99.90;;;;;;5017990;28;45259;-52
2023/09/03 03:46:02;;;;;;;22.42;13.50;;;19.20;99.90;;;;;;5015676;28;44560;-51
2023/09/03 03:48:28;;;;;;;18.90;12.25;;;19.10;99.90;;;;;;5014979;28;45060;-52
2023/09/03 03:50:55;;;;;;;21.40;12.75;;;19.10;99.90;;;;;;5020292;28;45214;-52
2023/09/03 03:53:22;;;;;;;17.80;11.88;;;19.10;99.90;;;;;;5020158;28;45160;-51
2023/09/03 03:55:56;;;;;;;19.80;12.90;;;19.10;99.90;;;;;;5013678;28;45238;-52
2023/09/03 03:58:23;;;;;;;20.08;11.95;;;19.10;99.90;;;;;;5007671;28;45168;-52
2023/09/03 04:00:51;;;;;;;20.25;12.80;;;19.10;99.90;;;;;;5008910;28;47029;-52
2023/09/03 04:03:18;;;;;;;22.13;12.85;;;19.20;99.90;;;;;;5012970;28;45394;-52
2023/09/03 04:05:45;;;;;;;19.10;11.80;;;19.10;99.90;;;;;;5010184;28;45160;-52
2023/09/03 04:08:11;;;;;;;20.65;12.90;;;19.20;99.90;;;;;;5006107;28;45101;-52
2023/09/03 04:10:38;;;;;;;18.63;12.27;;;19.10;99.90;;;;;;5004587;28;47581;-52
2023/09/03 04:13:05;;;;;;;17.85;11.55;;;19.10;99.90;;;;;;5012429;28;45530;-52
2023/09/03 04:15:31;;;;;;;19.83;11.98;;;19.10;99.90;;;;;;5010766;28;44645;-52
2023/09/03 04:18:00;;;;;;;21.90;13.38;;;19.10;99.90;;;;;;5021103;28;45472;-52
2023/09/03 04:20:27;;;;;;;19.85;12.77;;;19.10;99.90;;;;;;5023051;28;46569;-52
2023/09/03 04:22:55;;;;;;;19.83;13.02;;;19.00;99.90;;;;;;5020942;28;44603;-51
2023/09/03 04:25:22;;;;;;;19.95;11.90;;;19.10;99.90;;;;;;5023727;28;44666;-52
2023/09/03 04:27:49;;;;;;;20.33;11.13;;;19.00;99.90;;;;;;5019203;28;45088;-52
2023/09/03 04:30:15;;;;;;;21.35;10.57;;;18.90;99.90;;;;;;5023807;28;45270;-52
2023/09/03 04:32:41;;;;;;;17.67;10.70;;;18.80;99.90;;;;;;5022578;28;45162;-52
2023/09/03 04:35:10;;;;;;;18.13;10.40;;;18.80;99.90;;;;;;5023232;28;45087;-52
2023/09/03 04:37:36;;;;;;;16.73;10.35;;;18.80;99.90;;;;;;5023635;28;45133;-52
2023/09/03 04:40:04;;;;;;;21.27;13.23;;;18.80;99.90;;;;;;5025072;28;45446;-52
2023/09/03 04:42:30;;;;;;;21.38;13.18;;;18.90;99.90;;;;;;5010995;28;45215;-52
2023/09/03 04:44:57;;;;;;;23.10;12.80;;;18.90;99.90;;;;;;5023096;28;45167;-52
2023/09/03 04:47:24;;;;;;;20.75;13.23;;;18.90;99.90;;;;;;5023018;28;45305;-52
2023/09/03 04:49:51;;;;;;;21.77;14.00;;;19.00;99.90;;;;;;5023613;28;47479;-52
2023/09/03 04:52:19;;;;;;;19.40;12.32;;;19.00;99.90;;;;;;5020690;28;45134;-52
2023/09/03 04:54:45;;;;;;;26.85;13.20;;;19.00;99.90;;;;;;5016267;28;45096;-51
2023/09/03 04:57:12;;;;;;;22.80;13.93;;;19.10;99.90;;;;;;5018723;28;45164;-52
2023/09/03 04:59:39;;;;;;;23.77;14.18;;;19.10;99.90;;;;;;5019434;28;45296;-52
2023/09/03 05:02:06;;;;;;;23.92;14.00;;;19.20;99.90;;;;;;5015372;28;45041;-52
2023/09/03 05:04:33;;;;;;;22.80;13.75;;;19.20;99.90;;;;;;5016318;28;45302;-52
2023/09/03 05:07:00;;;;;;;20.33;12.68;;;19.20;99.90;;;;;;5024805;28;45239;-52
2023/09/03 05:09:28;;;;;;;20.90;13.43;;;19.20;99.90;;;;;;5023304;28;46550;-52
2023/09/03 05:11:54;;;;;;;21.40;13.15;;;19.20;99.90;;;;;;5016170;28;45666;-52
2023/09/03 05:14:21;;;;;;;22.42;13.38;;;19.10;99.90;;;;;;5022295;28;44568;-52
2023/09/03 05:16:48;;;;;;;22.80;12.40;;;19.10;99.90;;;;;;5017593;28;45131;-52
2023/09/03 05:19:15;;;;;;;28.65;13.70;;;19.00;99.90;;;;;;5012044;28;45179;-51
2023/09/03 05:21:42;;;;;;;19.15;12.55;;;19.00;99.90;;;;;;5021876;28;45116;-52
2023/09/03 05:24:10;;;;;;;29.77;13.88;;;19.00;99.90;;;;;;5024034;28;45107;-52
2023/09/03 05:26:38;;;;;;;21.05;13.60;;;18.90;99.90;;;;;;5015521;28;45297;-52
2023/09/03 05:29:05;;;;;;;23.13;13.73;;;19.00;99.90;;;;;;5021545;28;47307;-52
2023/09/03 05:31:32;;;;;;;21.80;13.32;;;19.00;99.90;;;;;;5013693;28;45291;-52
2023/09/03 05:33:59;;;;;;;21.80;12.52;;;19.10;99.90;;;;;;5019328;28;45087;-52
2023/09/03 05:36:26;;;;;;;23.58;12.98;;;19.10;99.90;;;;;;5016201;28;44724;-52
2023/09/03 05:38:53;;;;;;;18.58;12.02;;;19.10;99.90;;;;;;5023292;28;46355;-51
2023/09/03 05:41:20;;;;;;;18.80;12.20;;;19.10;99.90;;;;;;5015344;28;45127;-51
2023/09/03 05:43:52;;;;;;;17.15;12.20;;;19.10;99.90;;;;;;5015112;28;45176;-52
2023/09/03 05:46:18;;;;;;;19.50;12.18;;;19.10;99.90;;;;;;5016636;28;45167;-52
2023/09/03 05:48:45;;;;;;;19.40;11.55;;;19.10;99.90;;;;;;5019745;28;45383;-52
2023/09/03 05:51:12;;;;;;;20.80;12.63;;;19.00;99.90;;;;;;5021186;28;45105;-51
2023/09/03 05:53:39;;;;;;;20.73;11.77;;;19.00;99.90;;;;;;5022883;28;45139;-52
2023/09/03 05:56:06;;;;;;;19.65;12.48;;;19.00;99.90;;;;;;5014423;28;45110;-52
2023/09/03 05:58:33;;;;;;;22.75;12.82;;;19.00;99.90;;;;;;5021096;28;48294;-51
2023/09/03 06:01:04;;;;;;;22.15;13.63;;;19.10;99.90;;;;;;5022195;28;45130;-52
2023/09/03 06:03:30;;;;;;;18.70;12.27;;;19.10;99.90;;;;;;5021498;28;45088;-52
2023/09/03 06:05:57;;;;;;;21.23;12.85;;;19.20;99.90;;;;;;5015746;28;45093;-51
2023/09/03 06:08:24;;;;;;;18.88;12.57;;;19.20;99.90;;;;;;5016006;28;45552;-52
2023/09/03 06:10:56;;;;;;;20.80;12.75;;;19.20;99.90;;;;;;5021694;28;45278;-52
2023/09/03 06:13:22;;;;;;;21.35;12.75;;;19.20;99.90;;;;;;5021168;28;45094;-51
2023/09/03 06:15:49;;;;;;;25.00;14.60;;;19.30;99.90;;;;;;5021560;28;45341;-53
2023/09/03 06:18:17;;;;;;;24.10;13.98;;;19.30;99.90;;;;;;5018608;28;46998;-53
2023/09/03 06:20:44;;;;;;;24.88;15.07;;;19.20;99.90;;;;;;5012358;28;45172;-53
2023/09/03 06:23:15;;;;;;;20.88;13.27;;;19.10;99.90;;;;;;5019898;28;45247;-53
2023/09/03 06:25:42;;;;;;;22.50;13.73;;;19.20;99.90;;;;;;5020839;28;45298;-52
2023/09/03 06:28:09;;;;;;;23.67;14.82;;;19.20;99.90;;;;;;5023599;28;45255;-52
2023/09/03 06:30:36;;;;;;;24.58;14.63;;;19.20;99.90;;;;;;5020974;28;45221;-52
2023/09/03 06:33:03;;;;;;;22.38;13.52;;;19.20;99.90;;;;;;5017643;28;45149;-52
2023/09/03 06:35:32;;;;;;;20.05;14.43;;;19.20;99.90;;;;;;5022545;28;44902;-52
2023/09/03 06:37:59;;;;;;;21.63;13.95;;;19.20;99.90;;;;;;5015375;28;48119;-52
2023/09/03 06:40:27;;;;;;;23.40;15.43;;;19.20;99.90;;;;;;5016668;28;45183;-52
2023/09/03 06:42:53;;;;;;;23.73;14.75;;;19.20;99.90;;;;;;5018387;28;45271;-52
2023/09/03 06:45:20;;;;;;;26.50;15.48;;;19.20;99.90;;;;;;5019455;28;45136;-52
2023/09/03 06:47:47;;;;;;;24.70;14.88;;;19.30;99.90;;;;;;5013782;28;45160;-52
2023/09/03 06:50:14;;;;;;;27.40;16.23;;;19.30;99.90;;;;;;5020300;28;45190;-53
2023/09/03 06:52:42;;;;;;;30.60;17.40;;;19.40;99.90;;;;;;5018113;28;45415;-53
2023/09/03 06:55:09;;;;;;;27.88;16.02;;;19.50;99.90;;;;;;5015896;28;45378;-53
2023/09/03 06:57:36;;;;;;;25.42;16.50;;;19.60;99.90;;;;;;5018894;28;46244;-53
2023/09/03 07:00:05;;;;;;;27.77;17.45;;;19.60;99.90;;;;;;5012496;28;45211;-53
2023/09/03 07:02:32;;;;;;;26.13;16.00;;;19.60;99.90;;;;;;5010493;28;45212;-53
2023/09/03 07:04:59;;;;;;;25.17;16.70;;;19.70;99.90;;;;;;5016132;28;45101;-52
2023/09/03 07:07:26;;;;;;;27.52;16.65;;;19.70;99.90;;;;;;5011469;28;47656;-52
2023/09/03 07:09:55;;;;;;;23.65;14.55;;;19.70;99.90;;;;;;5021171;28;45195;-52
2023/09/03 07:12:23;;;;;;;29.40;17.65;;;19.70;99.90;;;;;;5015036;28;45162;-53
2023/09/03 07:14:50;;;;;;;27.60;15.93;;;19.70;99.90;;;;;;5016193;28;45100;-53
2023/09/03 07:17:17;;;;;;;26.50;16.92;;;19.80;99.90;;;;;;5017619;28;47043;-53
2023/09/03 07:19:44;;;;;;;23.95;15.65;;;19.80;99.90;;;;;;5022877;28;45345;-53
2023/09/03 07:22:11;;;;;;;21.60;14.25;;;19.80;99.90;;;;;;5021255;28;45371;-52
2023/09/03 07:24:38;;;;;;;27.05;16.23;;;19.90;99.90;;;;;;5018075;28;45086;-53
2023/09/03 07:27:06;;;;;;;23.48;15.18;;;19.90;99.90;;;;;;5022116;28;47023;-52
2023/09/03 07:29:32;;;;;;;26.48;16.65;;;19.90;99.90;;;;;;5019639;28;45146;-52
2023/09/03 07:31:59;;;;;;;28.63;17.52;;;19.90;99.90;;;;;;5012186;28;44938;-52
2023/09/03 07:34:26;;;;;;;26.00;15.82;;;19.90;99.90;;;;;;5022597;28;45294;-52
2023/09/03 07:36:53;;;;;;;24.80;15.70;;;19.90;99.90;;;;;;5018514;28;47904;-52
2023/09/03 07:39:20;;;;;;;27.88;17.08;;;19.90;99.90;;;;;;5021047;28;45139;-52
2023/09/03 07:41:47;;;;;;;28.20;17.17;;;19.90;99.90;;;;;;5012090;28;45545;-52
2023/09/03 07:44:15;;;;;;;27.25;16.23;;;19.90;99.90;;;;;;5016439;28;45183;-52
2023/09/03 07:46:42;;;;;;;27.23;16.83;;;20.00;99.90;;;;;;5021563;28;45164;-52
2023/09/03 07:49:09;;;;;;;30.98;17.33;;;20.00;99.90;;;;;;5019153;28;45120;-52
2023/09/03 07:51:35;;;;;;;27.83;17.15;;;20.00;99.90;;;;;;5020120;28;45312;-52
2023/09/03 07:54:02;;;;;;;28.42;15.80;;;20.00;99.90;;;;;;5019932;28;45284;-52
2023/09/03 07:56:30;;;;;;;29.58;16.95;;;20.00;99.90;;;;;;5016513;28;46539;-52
2023/09/03 07:58:57;;;;;;;26.08;15.98;;;20.00;99.90;;;;;;5020503;28;45348;-52
2023/09/03 08:01:25;;;;;;;29.90;17.08;;;20.10;99.90;;;;;;5023597;28;45089;-52
2023/09/03 08:03:52;;;;;;;28.60;16.40;;;20.10;99.90;;;;;;5022380;28;45190;-52
2023/09/03 08:06:18;;;;;;;26.50;16.88;;;20.10;99.90;;;;;;5024071;28;46303;-53
2023/09/03 08:08:52;;;;;;;25.80;16.70;;;20.10;99.90;;;;;;5019430;28;45310;-53
2023/09/03 08:11:18;;;;;;;29.27;17.48;;;20.10;99.90;;;;;;5013378;28;45751;-53
2023/09/03 08:13:45;;;;;;;28.83;16.77;;;20.10;99.90;;;;;;5018606;28;45093;-53
2023/09/03 08:16:12;;;;;;;24.48;15.95;;;20.20;99.90;;;;;;5015768;28;46424;-53
2023/09/03 08:18:40;;;;;;;28.95;17.83;;;20.20;99.90;;;;;;5022193;28;44912;-53
2023/09/03 08:21:07;;;;;;;24.05;16.30;;;20.20;99.90;;;;;;5020896;28;45534;-53
2023/09/03 08:23:33;;;;;;;19.67;13.30;;;20.30;99.90;;;;;;5023082;28;45163;-53
2023/09/03 08:26:00;;;;;;;28.75;17.10;;;20.40;99.90;;;;;;5025117;28;46217;-53
2023/09/03 08:28:27;;;;;;;25.88;16.88;;;20.40;99.90;;;;;;5021708;28;45144;-52
2023/09/03 08:30:54;;;;;;;18.88;12.40;;;20.50;99.90;;;;;;5020520;28;45216;-52
2023/09/03 08:33:20;;;;;;;21.25;14.10;;;20.50;99.90;;;;;;5018955;28;45297;-52
2023/09/03 08:35:49;;;;;;;23.20;14.02;;;20.50;99.90;;;;;;5024499;28;47100;-52
2023/09/03 08:38:15;;;;;;;23.48;15.20;;;20.40;99.90;;;;;;5024028;28;45107;-52
2023/09/03 08:40:43;;;;;;;22.23;14.35;;;20.40;99.90;;;;;;5018236;28;45181;-52
2023/09/03 08:43:12;;;;;;;22.17;14.48;;;20.30;99.90;;;;;;5017176;28;45264;-52
2023/09/03 08:45:42;;;;;;;19.45;12.82;;;20.30;99.90;;;;;;5011842;28;47002;-52
2023/09/03 08:48:09;;;;;;;19.40;11.38;;;20.40;99.90;;;;;;5017748;28;45187;-52
2023/09/03 08:50:36;;;;;;;10.82;7.18;;;20.50;99.90;;;;;;5017372;28;45363;-52
2023/09/03 08:53:05;;;;;;;17.55;11.20;;;21.10;99.90;;;;;;5022099;28;45227;-52
2023/09/03 08:55:32;;;;;;;16.88;9.90;;;21.40;99.90;;;;;;5021927;28;46370;-52
2023/09/03 08:57:59;;;;;;;25.00;15.10;;;21.10;99.90;;;;;;5022375;28;45228;-52
2023/09/03 09:00:26;;;;;;;23.63;15.00;;;20.50;99.90;;;;;;5015473;28;45291;-53
2023/09/03 09:02:54;;;;;;;24.40;14.07;;;20.10;99.90;;;;;;5009381;28;45435;-53
2023/09/03 09:05:22;;;;;;;21.98;12.20;;;20.10;99.90;;;;;;5016538;28;47440;-52
2023/09/03 09:07:49;;;;;;;17.80;11.20;;;20.30;99.90;;;;;;5004694;28;45177;-52
2023/09/03 09:10:23;;;;;;;17.77;10.52;;;20.50;99.90;;;;;;5020359;28;45250;-52
2023/09/03 09:12:57;;;;;;;20.27;10.85;;;20.60;99.90;;;;;;5009022;28;45080;-52
2023/09/03 09:15:24;;;;;;;19.00;10.85;;;20.70;99.90;;;;;;5022578;28;47993;-52
2023/09/03 09:17:50;;;;;;;19.15;10.27;;;20.70;99.90;;;;;;5022451;28;46150;-51
2023/09/03 09:20:19;;;;;;;14.27;8.30;;;20.70;99.90;;;;;;5022553;28;44571;-51
2023/09/03 09:22:47;;;;;;;19.25;9.23;;;20.80;99.90;;;;;;5023901;28;45148;-51
2023/09/03 09:25:21;;;;;;;15.48;9.20;;;20.80;99.90;;;;;;5024554;28;45171;-51
2023/09/03 09:27:48;;;;;;;13.30;8.25;;;20.70;99.90;;;;;;5022492;28;45113;-51
2023/09/03 09:30:19;;;;;;;12.45;7.82;;;20.70;99.90;;;;;;5024206;28;45216;-51
2023/09/03 09:32:46;;;;;;;13.80;7.63;;;20.80;99.90;;;;;;5022840;28;45123;-51
2023/09/03 09:35:23;;;;;;;12.45;6.90;;;20.80;99.90;;;;;;5022211;28;45130;-52
2023/09/03 09:37:50;;;;;;;10.65;5.90;;;20.80;99.90;;;;;;5016248;28;45264;-52
2023/09/03 09:40:27;;;;;;;12.32;6.45;;;20.80;99.90;;;;;;5023304;28;45090;-52
2023/09/03 09:42:55;;;;;;;10.35;6.65;;;20.80;99.90;;;;;;5023731;28;45323;-52
2023/09/03 09:45:22;;;;;;;13.82;7.95;;;20.80;99.90;;;;;;5024633;28;45211;-52
2023/09/03 09:48:03;;;;;;;13.35;7.80;;;20.80;99.90;;;;;;5023240;28;45312;-53
2023/09/03 09:50:32;;;;;;;12.77;8.75;;;20.70;99.90;;;;;;5021641;28;45101;-52
2023/09/03 09:52:59;;;;;;;12.32;8.23;;;20.70;99.90;;;;;;5023858;28;45137;-52
2023/09/03 09:55:29;;;;;;;13.95;7.65;;;20.70;99.90;;;;;;5015426;28;45345;-52
2023/09/03 09:57:56;;;;;;;14.13;7.53;;;20.80;99.90;;;;;;5022715;28;45139;-52
2023/09/03 10:00:33;;;;;;;11.27;7.32;;;20.70;99.90;;;;;;5020856;28;44607;-52
2023/09/03 10:03:00;;;;;;;8.30;6.13;;;20.80;99.90;;;;;;5012972;28;45165;-51
2023/09/03 10:05:27;;;;;;;8.90;5.60;;;20.80;99.90;;;;;;5021066;28;47990;-51
2023/09/03 10:07:54;;;;;;;11.50;6.40;;;20.90;99.90;;;;;;5021628;28;45184;-51
2023/09/03 10:10:21;;;;;;;8.98;5.60;;;20.90;99.90;;;;;;5012489;28;45176;-51
2023/09/03 10:12:49;;;;;;;13.10;7.43;;;20.90;99.90;;;;;;5020739;28;45409;-51
2023/09/03 10:15:16;;;;;;;8.85;6.18;;;20.90;99.90;;;;;;5023492;28;46029;-52
2023/09/03 10:17:50;;;;;;;13.77;7.40;;;21.00;99.90;;;;;;5008337;28;45215;-51
2023/09/03 10:20:19;;;;;;;7.05;4.82;;;21.00;99.90;;;;;;5022223;28;45167;-51
2023/09/03 10:22:47;;;;;;;7.22;4.57;;;21.00;99.90;;;;;;5022411;28;45158;-51
2023/09/03 10:25:17;;;;;;;10.15;6.05;;;21.00;99.90;;;;;;5020452;28;47314;-51
2023/09/03 10:27:48;;;;;;;14.38;7.60;;;21.00;99.90;;;;;;5020573;28;45997;-51
2023/09/03 10:30:22;;;;;;;10.15;5.75;;;21.00;99.90;;;;;;5022370;28;45146;-51
2023/09/03 10:32:51;;;;;;;9.95;5.72;;;21.00;99.90;;;;;;5017934;28;44659;-51
2023/09/03 10:35:18;;;;;;;10.32;6.65;;;21.00;99.90;;;;;;5013988;28;45193;-51
2023/09/03 10:37:44;;;;;;;10.43;5.97;;;21.00;99.90;;;;;;5020110;28;45567;-51
2023/09/03 10:40:19;;;;;;;7.88;5.05;;;21.00;99.90;;;;;;5022553;28;45069;-51
2023/09/03 10:42:46;;;;;;;10.15;6.00;;;21.00;99.90;;;;;;5020413;28;45106;-51
2023/09/03 10:45:14;;;;;;;9.05;5.07;;;21.00;99.90;;;;;;5021667;28;45314;-51
2023/09/03 10:48:00;;;;;;;8.25;4.88;;;21.00;99.90;;;;;;5017428;28;46854;-51
2023/09/03 10:50:44;;;;;;;11.88;5.70;;;21.00;99.90;;;;;;5021767;28;45156;-51
2023/09/03 10:53:34;;;;;;;9.30;5.25;;;20.90;99.90;;;;;;5023475;28;45206;-51
2023/09/03 10:56:12;;;;;;;10.43;5.88;;;20.90;99.90;;;;;;5016762;28;45489;-51
2023/09/03 10:58:55;;;;;;;7.78;5.10;;;21.00;99.90;;;;;;5024543;28;44560;-51
2023/09/03 11:01:26;;;;;;;6.75;5.18;;;21.00;99.90;;;;;;5024564;28;45080;-52
2023/09/03 11:03:55;;;;;;;7.55;5.10;;;21.00;99.90;;;;;;5014363;28;45175;-52
2023/09/03 11:06:22;;;;;;;6.75;4.20;;;21.00;99.90;;;;;;5022746;28;47078;-51
2023/09/03 11:09:10;;;;;;;7.97;5.30;;;21.10;99.90;;;;;;5025415;28;45060;-51
2023/09/03 11:11:39;;;;;;;7.13;4.57;;;21.10;99.90;;;;;;5024896;28;45092;-52
2023/09/03 11:14:07;;;;;;;4.10;3.42;;;21.10;99.90;;;;;;5025170;28;45057;-51
2023/09/03 11:16:35;;;;;;;8.32;4.63;;;21.10;99.90;;;;;;4982556;28;1127042;-52
2023/09/03 11:19:07;;;;;;;6.50;4.32;;;21.10;99.90;;;;;;5018461;28;45184;-51
2023/09/03 11:21:35;;;;;;;6.90;4.20;;;21.10;99.90;;;;;;5026237;28;45201;-51
2023/09/03 11:24:02;;;;;;;5.63;4.28;;;21.00;99.90;;;;;;5026194;28;44659;-52
2023/09/03 11:26:29;;;;;;;5.53;3.72;;;21.10;99.90;;;;;;5021948;28;47179;-52
2023/09/03 11:28:55;;;;;;;5.35;3.25;;;21.10;99.90;;;;;;5026339;28;45147;-51
2023/09/03 11:31:24;;;;;;;3.70;3.08;;;21.10;99.90;;;;;;5018219;28;45321;-52
2023/09/03 11:33:51;;;;;;;5.18;3.05;;;21.20;99.90;;;;;;5022546;28;45362;-52
2023/09/03 11:36:21;;;;;;;3.67;3.03;;;21.20;99.90;;;;;;5017502;28;48036;-52
2023/09/03 11:38:49;;;;;;;5.75;3.70;;;21.20;99.90;;;;;;5025397;28;45208;-51
2023/09/03 11:41:17;;;;;;;6.55;3.70;;;21.20;99.90;;;;;;5026329;28;45154;-52
2023/09/03 11:43:43;;;;;;;5.38;3.40;;;21.10;99.90;;;;;;5021994;28;45206;-51
2023/09/03 11:46:13;;;;;;;5.28;3.88;;;21.00;99.90;;;;;;5018113;28;47348;-51
2023/09/03 11:48:40;;;;;;;3.83;2.92;;;21.10;99.90;;;;;;5020957;28;45587;-52
2023/09/03 11:51:08;;;;;;;5.07;3.58;;;21.10;99.90;;;;;;5026007;28;45256;-51
2023/09/03 11:53:47;;;;;;;5.72;2.90;;;21.20;99.90;;;;;;5025664;28;45288;-52
2023/09/03 11:56:16;;;;;;;4.03;3.00;;;21.20;99.90;;;;;;5025847;28;45438;-51
2023/09/03 11:58:44;;;;;;;4.68;3.05;;;21.20;99.90;;;;;;5023690;28;45136;-51
2023/09/03 12:01:13;;;;;;;4.72;3.28;;;21.30;99.90;;;;;;5029359;28;45238;-51
2023/09/03 12:03:41;;;;;;;4.68;3.42;;;21.30;99.90;;;;;;5020989;28;45254;-51
2023/09/03 12:06:08;;;;;;;4.75;3.47;;;21.40;99.90;;;;;;5023398;28;46026;-52
2023/09/03 12:08:34;;;;;;;4.20;3.53;;;21.30;99.90;;;;;;5025558;28;45093;-51
2023/09/03 12:11:03;;;;;;;12.55;4.75;;;21.30;99.90;;;;;;5023279;28;45153;-51
2023/09/03 12:13:34;;;;;;;9.38;4.95;;;21.20;99.90;;;;;;5024730;28;45297;-51
2023/09/03 12:16:09;;;;;;;9.40;4.70;;;21.20;99.90;;;;;;5023829;28;47439;-52
2023/09/03 12:18:37;;;;;;;7.82;4.13;;;21.30;99.90;;;;;;5022601;28;45163;-51
2023/09/03 12:21:05;;;;;;;6.35;3.97;;;21.30;99.90;;;;;;5025310;28;45060;-52
2023/09/03 12:23:34;;;;;;;5.68;4.28;;;21.30;99.90;;;;;;5024817;28;45092;-51
2023/09/03 12:26:02;;;;;;;8.32;4.22;;;21.30;99.90;;;;;;5025337;28;45185;-52
2023/09/03 12:28:37;;;;;;;8.23;4.18;;;21.30;99.90;;;;;;5020571;28;45122;-51
2023/09/03 12:31:05;;;;;;;5.00;4.10;;;21.30;99.90;;;;;;5005715;28;45158;-51
2023/09/03 12:33:47;;;;;;;6.05;3.85;;;21.40;99.90;;;;;;5018631;28;45292;-51
2023/09/03 12:36:15;;;;;;;6.68;4.10;;;21.40;99.90;;;;;;5024916;28;45249;-52
2023/09/03 12:38:53;;;;;;;7.03;5.13;;;21.40;99.90;;;;;;5016991;28;44851;-51